sensor_id;sensor_type;location;lat;lon;timestamp;temperature;humidity
65034;DHT22;51601;51.356;12.458;2024-02-23T00:04:14;11.80;99.20
65034;DHT22;51601;51.356;12.458;2024-02-23T00:08:33;11.90;99.00
65034;DHT22;51601;51.356;12.458;2024-02-23T00:12:51;11.90;98.00
65034;DHT22;51601;51.356;12.458;2024-02-23T00:17:09;11.90;98.20
65034;DHT22;51601;51.356;12.458;2024-02-23T00:21:31;12.00;97.50
65034;DHT22;51601;51.356;12.458;2024-02-23T00:25:48;12.00;97.20
65034;DHT22;51601;51.356;12.458;2024-02-23T00:30:14;12.00;96.10
65034;DHT22;51601;51.356;12.458;2024-02-23T00:34:37;12.00;94.70
65034;DHT22;51601;51.356;12.458;2024-02-23T00:38:56;12.00;94.00
65034;DHT22;51601;51.356;12.458;2024-02-23T00:43:16;12.10;93.00
65034;DHT22;51601;51.356;12.458;2024-02-23T00:47:34;12.10;92.10
65034;DHT22;51601;51.356;12.458;2024-02-23T00:51:55;12.10;92.10
65034;DHT22;51601;51.356;12.458;2024-02-23T00:56:17;12.10;92.10
65034;DHT22;51601;51.356;12.458;2024-02-23T01:00:40;12.00;92.00
65034;DHT22;51601;51.356;12.458;2024-02-23T01:04:58;12.00;92.40
65034;DHT22;51601;51.356;12.458;2024-02-23T01:09:17;11.90;92.30
65034;DHT22;51601;51.356;12.458;2024-02-23T01:13:39;11.80;91.90
65034;DHT22;51601;51.356;12.458;2024-02-23T01:17:58;11.80;91.90
65034;DHT22;51601;51.356;12.458;2024-02-23T01:22:16;11.80;91.70
65034;DHT22;51601;51.356;12.458;2024-02-23T01:26:35;11.80;91.20
65034;DHT22;51601;51.356;12.458;2024-02-23T01:31:00;11.80;91.10
65034;DHT22;51601;51.356;12.458;2024-02-23T01:35:20;11.80;89.60
65034;DHT22;51601;51.356;12.458;2024-02-23T01:39:38;11.80;86.50
65034;DHT22;51601;51.356;12.458;2024-02-23T01:43:56;11.80;84.30
65034;DHT22;51601;51.356;12.458;2024-02-23T01:48:16;11.80;83.10
65034;DHT22;51601;51.356;12.458;2024-02-23T01:52:40;11.80;84.50
65034;DHT22;51601;51.356;12.458;2024-02-23T01:56:58;11.80;85.40
65034;DHT22;51601;51.356;12.458;2024-02-23T02:01:36;11.80;87.80
65034;DHT22;51601;51.356;12.458;2024-02-23T02:05:59;11.70;89.00
65034;DHT22;51601;51.356;12.458;2024-02-23T02:10:21;11.60;89.70
65034;DHT22;51601;51.356;12.458;2024-02-23T02:14:48;11.60;89.40
65034;DHT22;51601;51.356;12.458;2024-02-23T02:19:07;11.50;88.90
65034;DHT22;51601;51.356;12.458;2024-02-23T02:23:26;11.40;85.30
65034;DHT22;51601;51.356;12.458;2024-02-23T02:27:47;11.30;81.70
65034;DHT22;51601;51.356;12.458;2024-02-23T02:32:04;11.20;78.80
65034;DHT22;51601;51.356;12.458;2024-02-23T02:36:22;11.20;78.50
65034;DHT22;51601;51.356;12.458;2024-02-23T02:40:42;11.10;76.90
65034;DHT22;51601;51.356;12.458;2024-02-23T02:45:01;11.00;76.60
65034;DHT22;51601;51.356;12.458;2024-02-23T02:49:19;10.80;76.40
65034;DHT22;51601;51.356;12.458;2024-02-23T02:53:37;10.70;76.70
65034;DHT22;51601;51.356;12.458;2024-02-23T02:57:57;10.60;77.50
65034;DHT22;51601;51.356;12.458;2024-02-23T03:02:16;10.50;78.80
65034;DHT22;51601;51.356;12.458;2024-02-23T03:06:34;10.50;79.60
65034;DHT22;51601;51.356;12.458;2024-02-23T03:10:52;10.40;80.10
65034;DHT22;51601;51.356;12.458;2024-02-23T03:15:12;10.40;80.40
65034;DHT22;51601;51.356;12.458;2024-02-23T03:19:32;10.30;79.90
65034;DHT22;51601;51.356;12.458;2024-02-23T03:23:51;10.20;76.70
65034;DHT22;51601;51.356;12.458;2024-02-23T03:28:08;10.30;73.20
65034;DHT22;51601;51.356;12.458;2024-02-23T03:32:28;10.20;73.30
65034;DHT22;51601;51.356;12.458;2024-02-23T03:36:47;10.20;73.60
65034;DHT22;51601;51.356;12.458;2024-02-23T03:41:06;10.10;74.00
65034;DHT22;51601;51.356;12.458;2024-02-23T03:45:23;10.10;74.40
65034;DHT22;51601;51.356;12.458;2024-02-23T03:49:43;9.90;74.60
65034;DHT22;51601;51.356;12.458;2024-02-23T03:54:03;9.70;75.10
65034;DHT22;51601;51.356;12.458;2024-02-23T03:58:20;9.50;75.80
65034;DHT22;51601;51.356;12.458;2024-02-23T04:02:38;9.40;76.40
65034;DHT22;51601;51.356;12.458;2024-02-23T04:06:58;9.20;77.20
65034;DHT22;51601;51.356;12.458;2024-02-23T04:11:18;9.00;77.80
65034;DHT22;51601;51.356;12.458;2024-02-23T04:15:35;8.80;78.40
65034;DHT22;51601;51.356;12.458;2024-02-23T04:19:54;8.70;79.60
65034;DHT22;51601;51.356;12.458;2024-02-23T04:24:13;8.60;80.10
65034;DHT22;51601;51.356;12.458;2024-02-23T04:28:31;8.50;80.50
65034;DHT22;51601;51.356;12.458;2024-02-23T04:32:51;8.40;81.20
65034;DHT22;51601;51.356;12.458;2024-02-23T04:37:09;8.40;81.80
65034;DHT22;51601;51.356;12.458;2024-02-23T04:41:28;8.30;82.70
65034;DHT22;51601;51.356;12.458;2024-02-23T04:45:48;8.30;83.60
65034;DHT22;51601;51.356;12.458;2024-02-23T04:50:07;8.20;84.20
65034;DHT22;51601;51.356;12.458;2024-02-23T04:54:27;8.10;84.30
65034;DHT22;51601;51.356;12.458;2024-02-23T04:58:47;8.00;85.20
65034;DHT22;51601;51.356;12.458;2024-02-23T05:03:07;8.00;85.80
65034;DHT22;51601;51.356;12.458;2024-02-23T05:07:27;7.90;86.00
65034;DHT22;51601;51.356;12.458;2024-02-23T05:11:46;7.80;86.70
65034;DHT22;51601;51.356;12.458;2024-02-23T05:16:05;7.80;87.60
65034;DHT22;51601;51.356;12.458;2024-02-23T05:20:25;7.70;88.20
65034;DHT22;51601;51.356;12.458;2024-02-23T05:24:43;7.60;88.70
65034;DHT22;51601;51.356;12.458;2024-02-23T05:29:01;7.60;89.60
65034;DHT22;51601;51.356;12.458;2024-02-23T05:33:20;7.60;86.70
65034;DHT22;51601;51.356;12.458;2024-02-23T05:37:41;7.60;85.20
65034;DHT22;51601;51.356;12.458;2024-02-23T05:41:58;7.60;84.40
65034;DHT22;51601;51.356;12.458;2024-02-23T05:46:16;7.70;83.70
65034;DHT22;51601;51.356;12.458;2024-02-23T05:50:37;7.70;83.10
65034;DHT22;51601;51.356;12.458;2024-02-23T05:54:56;7.70;83.20
65034;DHT22;51601;51.356;12.458;2024-02-23T05:59:13;7.70;83.00
65034;DHT22;51601;51.356;12.458;2024-02-23T06:03:34;7.70;83.30
65034;DHT22;51601;51.356;12.458;2024-02-23T06:07:54;7.70;83.50
65034;DHT22;51601;51.356;12.458;2024-02-23T06:12:14;7.60;83.90
65034;DHT22;51601;51.356;12.458;2024-02-23T06:16:32;7.60;84.90
65034;DHT22;51601;51.356;12.458;2024-02-23T06:20:51;7.60;86.50
65034;DHT22;51601;51.356;12.458;2024-02-23T06:25:09;7.50;87.80
65034;DHT22;51601;51.356;12.458;2024-02-23T06:29:29;7.50;89.20
65034;DHT22;51601;51.356;12.458;2024-02-23T06:33:47;7.50;90.20
65034;DHT22;51601;51.356;12.458;2024-02-23T06:38:08;7.50;90.60
65034;DHT22;51601;51.356;12.458;2024-02-23T06:42:27;7.50;91.00
65034;DHT22;51601;51.356;12.458;2024-02-23T06:46:47;7.50;91.10
65034;DHT22;51601;51.356;12.458;2024-02-23T06:51:06;7.50;90.90
65034;DHT22;51601;51.356;12.458;2024-02-23T06:55:26;7.50;90.80
65034;DHT22;51601;51.356;12.458;2024-02-23T06:59:46;7.50;90.40
65034;DHT22;51601;51.356;12.458;2024-02-23T07:04:06;7.50;90.40
65034;DHT22;51601;51.356;12.458;2024-02-23T07:08:31;7.40;90.40
65034;DHT22;51601;51.356;12.458;2024-02-23T07:12:51;7.50;90.10
65034;DHT22;51601;51.356;12.458;2024-02-23T07:17:16;7.50;89.80
65034;DHT22;51601;51.356;12.458;2024-02-23T07:21:36;7.50;88.70
65034;DHT22;51601;51.356;12.458;2024-02-23T07:26:01;7.50;88.10
65034;DHT22;51601;51.356;12.458;2024-02-23T07:30:19;7.60;88.70
65034;DHT22;51601;51.356;12.458;2024-02-23T07:34:38;7.70;89.60
65034;DHT22;51601;51.356;12.458;2024-02-23T07:38:58;7.80;88.80
65034;DHT22;51601;51.356;12.458;2024-02-23T07:43:16;7.80;87.40
65034;DHT22;51601;51.356;12.458;2024-02-23T07:47:34;7.90;87.00
65034;DHT22;51601;51.356;12.458;2024-02-23T07:51:56;7.90;86.10
65034;DHT22;51601;51.356;12.458;2024-02-23T07:56:19;7.90;85.30
65034;DHT22;51601;51.356;12.458;2024-02-23T08:00:43;7.90;84.50
65034;DHT22;51601;51.356;12.458;2024-02-23T08:05:08;7.90;83.10
65034;DHT22;51601;51.356;12.458;2024-02-23T08:09:31;7.90;82.80
65034;DHT22;51601;51.356;12.458;2024-02-23T08:13:50;8.00;81.80
65034;DHT22;51601;51.356;12.458;2024-02-23T08:18:11;7.90;81.70
65034;DHT22;51601;51.356;12.458;2024-02-23T08:22:32;8.00;80.40
65034;DHT22;51601;51.356;12.458;2024-02-23T08:26:51;8.00;80.00
65034;DHT22;51601;51.356;12.458;2024-02-23T08:31:11;8.10;79.00
65034;DHT22;51601;51.356;12.458;2024-02-23T08:35:29;8.20;77.90
65034;DHT22;51601;51.356;12.458;2024-02-23T08:39:50;8.30;78.00
65034;DHT22;51601;51.356;12.458;2024-02-23T08:44:19;8.50;77.40
65034;DHT22;51601;51.356;12.458;2024-02-23T08:48:39;8.80;76.90
65034;DHT22;51601;51.356;12.458;2024-02-23T08:53:00;9.00;76.60
65034;DHT22;51601;51.356;12.458;2024-02-23T08:57:18;9.20;76.10
65034;DHT22;51601;51.356;12.458;2024-02-23T09:01:40;9.40;74.20
65034;DHT22;51601;51.356;12.458;2024-02-23T09:06:04;9.50;74.80
65034;DHT22;51601;51.356;12.458;2024-02-23T09:10:21;9.70;74.00
65034;DHT22;51601;51.356;12.458;2024-02-23T09:14:39;9.90;75.00
65034;DHT22;51601;51.356;12.458;2024-02-23T09:19:00;10.10;73.90
65034;DHT22;51601;51.356;12.458;2024-02-23T09:23:19;10.30;73.60
65034;DHT22;51601;51.356;12.458;2024-02-23T09:27:37;10.50;72.20
65034;DHT22;51601;51.356;12.458;2024-02-23T09:32:01;10.70;72.10
65034;DHT22;51601;51.356;12.458;2024-02-23T09:36:20;10.70;70.10
65034;DHT22;51601;51.356;12.458;2024-02-23T09:40:40;10.70;69.70
65034;DHT22;51601;51.356;12.458;2024-02-23T09:45:00;10.70;69.70
65034;DHT22;51601;51.356;12.458;2024-02-23T09:49:21;10.70;68.70
65034;DHT22;51601;51.356;12.458;2024-02-23T09:53:44;10.70;68.60
65034;DHT22;51601;51.356;12.458;2024-02-23T09:58:02;10.80;68.40
65034;DHT22;51601;51.356;12.458;2024-02-23T10:02:28;10.90;67.40
65034;DHT22;51601;51.356;12.458;2024-02-23T10:07:06;11.10;68.10
65034;DHT22;51601;51.356;12.458;2024-02-23T10:11:25;11.20;67.40
65034;DHT22;51601;51.356;12.458;2024-02-23T10:15:45;11.30;67.80
65034;DHT22;51601;51.356;12.458;2024-02-23T10:20:24;11.30;67.10
65034;DHT22;51601;51.356;12.458;2024-02-23T10:24:45;11.30;65.90
65034;DHT22;51601;51.356;12.458;2024-02-23T10:29:05;11.40;65.10
65034;DHT22;51601;51.356;12.458;2024-02-23T10:33:28;11.50;64.40
65034;DHT22;51601;51.356;12.458;2024-02-23T10:37:49;11.60;65.60
65034;DHT22;51601;51.356;12.458;2024-02-23T10:42:11;11.80;64.80
65034;DHT22;51601;51.356;12.458;2024-02-23T10:46:33;11.90;64.00
65034;DHT22;51601;51.356;12.458;2024-02-23T10:50:52;12.00;64.10
65034;DHT22;51601;51.356;12.458;2024-02-23T10:55:12;12.00;61.00
65034;DHT22;51601;51.356;12.458;2024-02-23T10:59:32;11.90;59.10
65034;DHT22;51601;51.356;12.458;2024-02-23T11:03:54;11.70;59.60
65034;DHT22;51601;51.356;12.458;2024-02-23T11:08:13;11.60;60.30
65034;DHT22;51601;51.356;12.458;2024-02-23T11:12:35;11.60;60.60
65034;DHT22;51601;51.356;12.458;2024-02-23T11:16:53;11.60;59.70
65034;DHT22;51601;51.356;12.458;2024-02-23T11:21:12;11.50;59.30
65034;DHT22;51601;51.356;12.458;2024-02-23T11:25:32;11.40;58.30
65034;DHT22;51601;51.356;12.458;2024-02-23T11:29:59;11.30;57.10
65034;DHT22;51601;51.356;12.458;2024-02-23T11:34:22;11.10;57.00
65034;DHT22;51601;51.356;12.458;2024-02-23T11:38:54;10.90;57.70
65034;DHT22;51601;51.356;12.458;2024-02-23T11:43:17;10.90;57.90
65034;DHT22;51601;51.356;12.458;2024-02-23T11:47:39;10.80;58.00
65034;DHT22;51601;51.356;12.458;2024-02-23T11:52:00;10.70;58.50
65034;DHT22;51601;51.356;12.458;2024-02-23T11:56:20;10.60;57.80
65034;DHT22;51601;51.356;12.458;2024-02-23T12:00:40;10.50;58.30
65034;DHT22;51601;51.356;12.458;2024-02-23T12:05:00;10.40;58.50
65034;DHT22;51601;51.356;12.458;2024-02-23T12:09:19;10.40;58.30
65034;DHT22;51601;51.356;12.458;2024-02-23T12:13:38;10.30;56.90
65034;DHT22;51601;51.356;12.458;2024-02-23T12:17:58;10.10;57.20
65034;DHT22;51601;51.356;12.458;2024-02-23T12:22:25;10.00;57.50
65034;DHT22;51601;51.356;12.458;2024-02-23T12:26:43;10.00;57.70
65034;DHT22;51601;51.356;12.458;2024-02-23T12:31:03;10.00;57.90
65034;DHT22;51601;51.356;12.458;2024-02-23T12:35:22;10.10;58.20
65034;DHT22;51601;51.356;12.458;2024-02-23T12:39:40;10.00;58.30
65034;DHT22;51601;51.356;12.458;2024-02-23T12:43:59;10.10;58.90
65034;DHT22;51601;51.356;12.458;2024-02-23T12:48:21;10.10;59.20
65034;DHT22;51601;51.356;12.458;2024-02-23T12:52:41;10.20;59.10
65034;DHT22;51601;51.356;12.458;2024-02-23T12:56:59;10.20;58.70
65034;DHT22;51601;51.356;12.458;2024-02-23T13:01:16;10.10;58.30
65034;DHT22;51601;51.356;12.458;2024-02-23T13:05:36;10.00;59.10
65034;DHT22;51601;51.356;12.458;2024-02-23T13:09:56;10.00;58.80
65034;DHT22;51601;51.356;12.458;2024-02-23T13:14:14;10.00;58.80
65034;DHT22;51601;51.356;12.458;2024-02-23T13:18:32;10.00;58.40
65034;DHT22;51601;51.356;12.458;2024-02-23T13:22:51;10.00;58.80
65034;DHT22;51601;51.356;12.458;2024-02-23T13:27:11;10.00;58.80
65034;DHT22;51601;51.356;12.458;2024-02-23T13:31:30;10.00;58.90
65034;DHT22;51601;51.356;12.458;2024-02-23T13:35:48;9.90;59.10
65034;DHT22;51601;51.356;12.458;2024-02-23T13:40:10;10.00;59.80
65034;DHT22;51601;51.356;12.458;2024-02-23T13:44:29;9.90;59.80
65034;DHT22;51601;51.356;12.458;2024-02-23T13:49:02;9.90;59.80
65034;DHT22;51601;51.356;12.458;2024-02-23T13:53:21;9.90;60.10
65034;DHT22;51601;51.356;12.458;2024-02-23T13:57:40;9.80;60.10
65034;DHT22;51601;51.356;12.458;2024-02-23T14:01:57;9.80;60.50
65034;DHT22;51601;51.356;12.458;2024-02-23T14:06:15;9.80;61.30
65034;DHT22;51601;51.356;12.458;2024-02-23T14:10:33;9.80;61.20
65034;DHT22;51601;51.356;12.458;2024-02-23T14:14:53;9.80;61.30
65034;DHT22;51601;51.356;12.458;2024-02-23T14:19:13;9.80;60.90
65034;DHT22;51601;51.356;12.458;2024-02-23T14:23:33;9.70;60.90
65034;DHT22;51601;51.356;12.458;2024-02-23T14:27:51;9.70;61.00
65034;DHT22;51601;51.356;12.458;2024-02-23T14:32:16;9.60;61.10
65034;DHT22;51601;51.356;12.458;2024-02-23T14:36:34;9.60;61.60
65034;DHT22;51601;51.356;12.458;2024-02-23T14:40:52;9.60;61.90
65034;DHT22;51601;51.356;12.458;2024-02-23T14:45:10;9.60;62.10
65034;DHT22;51601;51.356;12.458;2024-02-23T14:49:33;9.50;61.90
65034;DHT22;51601;51.356;12.458;2024-02-23T14:53:52;9.50;61.80
65034;DHT22;51601;51.356;12.458;2024-02-23T14:58:12;9.40;61.50
65034;DHT22;51601;51.356;12.458;2024-02-23T15:02:31;9.40;61.70
65034;DHT22;51601;51.356;12.458;2024-02-23T15:06:51;9.40;60.90
65034;DHT22;51601;51.356;12.458;2024-02-23T15:11:11;9.30;60.80
65034;DHT22;51601;51.356;12.458;2024-02-23T15:15:29;9.30;60.40
65034;DHT22;51601;51.356;12.458;2024-02-23T15:19:47;9.20;60.40
65034;DHT22;51601;51.356;12.458;2024-02-23T15:24:06;9.10;60.50
65034;DHT22;51601;51.356;12.458;2024-02-23T15:28:26;9.10;60.70
65034;DHT22;51601;51.356;12.458;2024-02-23T15:32:44;9.10;61.00
65034;DHT22;51601;51.356;12.458;2024-02-23T15:37:04;9.00;60.90
65034;DHT22;51601;51.356;12.458;2024-02-23T15:41:24;8.90;62.10
65034;DHT22;51601;51.356;12.458;2024-02-23T15:45:46;8.90;61.90
65034;DHT22;51601;51.356;12.458;2024-02-23T15:50:06;8.80;62.30
65034;DHT22;51601;51.356;12.458;2024-02-23T15:54:45;8.80;62.90
65034;DHT22;51601;51.356;12.458;2024-02-23T15:59:04;8.60;63.00
65034;DHT22;51601;51.356;12.458;2024-02-23T16:03:24;8.60;63.30
65034;DHT22;51601;51.356;12.458;2024-02-23T16:07:42;8.50;63.60
65034;DHT22;51601;51.356;12.458;2024-02-23T16:12:00;8.40;63.70
65034;DHT22;51601;51.356;12.458;2024-02-23T16:16:20;8.40;63.70
65034;DHT22;51601;51.356;12.458;2024-02-23T16:20:39;8.40;63.70
65034;DHT22;51601;51.356;12.458;2024-02-23T16:24:58;8.30;63.60
65034;DHT22;51601;51.356;12.458;2024-02-23T16:29:22;8.30;63.70
65034;DHT22;51601;51.356;12.458;2024-02-23T16:33:41;8.20;63.70
65034;DHT22;51601;51.356;12.458;2024-02-23T16:38:01;8.20;64.00
65034;DHT22;51601;51.356;12.458;2024-02-23T16:42:19;8.20;64.20
65034;DHT22;51601;51.356;12.458;2024-02-23T16:46:40;8.10;64.30
65034;DHT22;51601;51.356;12.458;2024-02-23T16:51:00;8.10;64.50
65034;DHT22;51601;51.356;12.458;2024-02-23T16:55:19;8.00;64.90
65034;DHT22;51601;51.356;12.458;2024-02-23T16:59:37;8.00;65.20
65034;DHT22;51601;51.356;12.458;2024-02-23T17:03:59;7.90;65.40
65034;DHT22;51601;51.356;12.458;2024-02-23T17:08:21;7.90;65.60
65034;DHT22;51601;51.356;12.458;2024-02-23T17:12:44;7.80;66.00
65034;DHT22;51601;51.356;12.458;2024-02-23T17:17:05;7.80;66.40
65034;DHT22;51601;51.356;12.458;2024-02-23T17:21:26;7.70;66.70
65034;DHT22;51601;51.356;12.458;2024-02-23T17:25:47;7.60;67.10
65034;DHT22;51601;51.356;12.458;2024-02-23T17:30:07;7.60;67.40
65034;DHT22;51601;51.356;12.458;2024-02-23T17:34:27;7.50;67.70
65034;DHT22;51601;51.356;12.458;2024-02-23T17:38:46;7.40;68.00
65034;DHT22;51601;51.356;12.458;2024-02-23T17:43:05;7.40;68.30
65034;DHT22;51601;51.356;12.458;2024-02-23T17:47:25;7.30;68.70
65034;DHT22;51601;51.356;12.458;2024-02-23T17:51:43;7.30;69.10
65034;DHT22;51601;51.356;12.458;2024-02-23T17:56:04;7.20;69.50
65034;DHT22;51601;51.356;12.458;2024-02-23T18:00:23;7.10;69.90
65034;DHT22;51601;51.356;12.458;2024-02-23T18:04:43;7.10;70.30
65034;DHT22;51601;51.356;12.458;2024-02-23T18:09:04;7.00;70.70
65034;DHT22;51601;51.356;12.458;2024-02-23T18:13:23;7.00;71.10
65034;DHT22;51601;51.356;12.458;2024-02-23T18:17:42;7.00;71.50
65034;DHT22;51601;51.356;12.458;2024-02-23T18:22:02;6.90;71.80
65034;DHT22;51601;51.356;12.458;2024-02-23T18:26:23;6.90;72.10
65034;DHT22;51601;51.356;12.458;2024-02-23T18:30:53;6.80;72.40
65034;DHT22;51601;51.356;12.458;2024-02-23T18:35:14;6.80;72.90
65034;DHT22;51601;51.356;12.458;2024-02-23T18:39:32;6.70;73.20
65034;DHT22;51601;51.356;12.458;2024-02-23T18:43:51;6.70;73.40
65034;DHT22;51601;51.356;12.458;2024-02-23T18:48:11;6.60;73.60
65034;DHT22;51601;51.356;12.458;2024-02-23T18:52:32;6.60;73.80
65034;DHT22;51601;51.356;12.458;2024-02-23T18:56:51;6.60;73.90
65034;DHT22;51601;51.356;12.458;2024-02-23T19:01:12;6.60;74.10
65034;DHT22;51601;51.356;12.458;2024-02-23T19:05:32;6.60;74.20
65034;DHT22;51601;51.356;12.458;2024-02-23T19:09:52;6.50;74.20
65034;DHT22;51601;51.356;12.458;2024-02-23T19:14:12;6.50;74.30
65034;DHT22;51601;51.356;12.458;2024-02-23T19:18:31;6.50;74.40
65034;DHT22;51601;51.356;12.458;2024-02-23T19:22:53;6.50;74.40
65034;DHT22;51601;51.356;12.458;2024-02-23T19:27:17;6.50;74.40
65034;DHT22;51601;51.356;12.458;2024-02-23T19:31:38;6.50;74.40
65034;DHT22;51601;51.356;12.458;2024-02-23T19:35:57;6.50;74.50
65034;DHT22;51601;51.356;12.458;2024-02-23T19:40:16;6.40;74.90
65034;DHT22;51601;51.356;12.458;2024-02-23T19:44:38;6.40;74.40
65034;DHT22;51601;51.356;12.458;2024-02-23T19:48:58;6.40;74.30
65034;DHT22;51601;51.356;12.458;2024-02-23T19:53:16;6.30;74.20
65034;DHT22;51601;51.356;12.458;2024-02-23T19:57:34;6.30;74.10
65034;DHT22;51601;51.356;12.458;2024-02-23T20:01:53;6.30;74.10
65034;DHT22;51601;51.356;12.458;2024-02-23T20:06:14;6.30;74.10
65034;DHT22;51601;51.356;12.458;2024-02-23T20:10:34;6.20;74.10
65034;DHT22;51601;51.356;12.458;2024-02-23T20:14:52;6.20;74.20
65034;DHT22;51601;51.356;12.458;2024-02-23T20:19:12;6.20;74.40
65034;DHT22;51601;51.356;12.458;2024-02-23T20:23:34;6.10;74.50
65034;DHT22;51601;51.356;12.458;2024-02-23T20:27:53;6.10;74.80
65034;DHT22;51601;51.356;12.458;2024-02-23T20:32:14;6.10;75.10
65034;DHT22;51601;51.356;12.458;2024-02-23T20:36:45;6.00;75.20
65034;DHT22;51601;51.356;12.458;2024-02-23T20:41:05;6.00;75.30
65034;DHT22;51601;51.356;12.458;2024-02-23T20:45:23;6.00;75.50
65034;DHT22;51601;51.356;12.458;2024-02-23T20:49:41;5.90;75.60
65034;DHT22;51601;51.356;12.458;2024-02-23T20:54:04;5.80;75.80
65034;DHT22;51601;51.356;12.458;2024-02-23T20:58:23;5.80;76.00
65034;DHT22;51601;51.356;12.458;2024-02-23T21:02:42;5.70;76.20
65034;DHT22;51601;51.356;12.458;2024-02-23T21:07:00;5.70;76.40
65034;DHT22;51601;51.356;12.458;2024-02-23T21:11:19;5.60;76.60
65034;DHT22;51601;51.356;12.458;2024-02-23T21:15:39;5.60;76.90
65034;DHT22;51601;51.356;12.458;2024-02-23T21:19:57;5.60;77.20
65034;DHT22;51601;51.356;12.458;2024-02-23T21:24:16;5.50;77.60
65034;DHT22;51601;51.356;12.458;2024-02-23T21:28:39;5.50;78.00
65034;DHT22;51601;51.356;12.458;2024-02-23T21:33:00;5.50;78.20
65034;DHT22;51601;51.356;12.458;2024-02-23T21:37:19;5.50;78.60
65034;DHT22;51601;51.356;12.458;2024-02-23T21:41:38;5.50;78.90
65034;DHT22;51601;51.356;12.458;2024-02-23T21:45:59;5.40;79.20
65034;DHT22;51601;51.356;12.458;2024-02-23T21:50:19;5.40;79.60
65034;DHT22;51601;51.356;12.458;2024-02-23T21:54:40;5.40;79.80
65034;DHT22;51601;51.356;12.458;2024-02-23T21:59:05;5.40;80.20
65034;DHT22;51601;51.356;12.458;2024-02-23T22:03:23;5.40;80.40
65034;DHT22;51601;51.356;12.458;2024-02-23T22:07:43;5.30;80.60
65034;DHT22;51601;51.356;12.458;2024-02-23T22:12:07;5.30;81.00
65034;DHT22;51601;51.356;12.458;2024-02-23T22:16:25;5.30;81.50
65034;DHT22;51601;51.356;12.458;2024-02-23T22:20:45;5.30;82.40
65034;DHT22;51601;51.356;12.458;2024-02-23T22:25:05;5.30;83.10
65034;DHT22;51601;51.356;12.458;2024-02-23T22:29:23;5.40;83.60
65034;DHT22;51601;51.356;12.458;2024-02-23T22:33:41;5.30;83.90
65034;DHT22;51601;51.356;12.458;2024-02-23T22:38:00;5.30;84.10
65034;DHT22;51601;51.356;12.458;2024-02-23T22:42:20;5.30;84.20
65034;DHT22;51601;51.356;12.458;2024-02-23T22:46:38;5.20;84.40
65034;DHT22;51601;51.356;12.458;2024-02-23T22:50:56;5.20;85.00
65034;DHT22;51601;51.356;12.458;2024-02-23T22:55:15;5.20;85.80
65034;DHT22;51601;51.356;12.458;2024-02-23T22:59:32;5.10;86.10
65034;DHT22;51601;51.356;12.458;2024-02-23T23:03:50;5.10;86.60
65034;DHT22;51601;51.356;12.458;2024-02-23T23:08:08;5.10;87.60
65034;DHT22;51601;51.356;12.458;2024-02-23T23:12:28;5.10;88.20
65034;DHT22;51601;51.356;12.458;2024-02-23T23:16:48;5.00;88.70
65034;DHT22;51601;51.356;12.458;2024-02-23T23:21:07;5.00;89.20
65034;DHT22;51601;51.356;12.458;2024-02-23T23:25:27;4.90;89.70
65034;DHT22;51601;51.356;12.458;2024-02-23T23:29:46;4.90;90.20
65034;DHT22;51601;51.356;12.458;2024-02-23T23:34:06;4.90;90.40
65034;DHT22;51601;51.356;12.458;2024-02-23T23:38:24;4.90;90.80
65034;DHT22;51601;51.356;12.458;2024-02-23T23:47:36;4.90;91.80
65034;DHT22;51601;51.356;12.458;2024-02-23T23:52:10;4.90;92.20
65034;DHT22;51601;51.356;12.458;2024-02-23T23:56:31;4.90;92.50
